Time;durP1;ratioP1;P1;durP2;ratioP2;P2;SDS_P1;SDS_P2;PMS_P1;PMS_P2;Temp;Humidity;BMP_temperature;BMP_pressure;BME280_temperature;BME280_humidity;BME280_pressure;Samples;Min_cycle;Max_cycle;Signal;HPM_P1;HPM_P2
2021/05/05 00:00:54;;;;;;;3.83;2.90;;;;;;;8.48;59.52;98905.53;5101573;28;20191;-64
2021/05/05 00:03:19;;;;;;;5.97;2.97;;;;;;;8.62;59.54;98925.28;5105689;28;20339;-68
2021/05/05 00:05:45;;;;;;;5.30;3.07;;;;;;;8.25;60.05;98913.53;5122169;28;20417;-65
2021/05/05 00:08:10;;;;;;;5.87;3.27;;;;;;;8.76;58.83;98913.84;5122055;28;20217;-66
2021/05/05 00:10:35;;;;;;;4.77;3.00;;;;;;;8.26;60.46;98894.50;5121756;28;20211;-65
2021/05/05 00:13:00;;;;;;;9.07;2.77;;;;;;;8.39;59.93;98903.88;5114031;28;20187;-65
2021/05/05 00:15:26;;;;;;;3.27;2.80;;;;;;;8.75;59.25;98917.34;5101560;28;20211;-66
2021/05/05 00:17:51;;;;;;;5.47;2.90;;;;;;;8.65;60.16;98889.75;5101504;28;20176;-65
2021/05/05 00:20:20;;;;;;;3.50;2.70;;;;;;;8.71;59.34;98900.09;5101903;28;20172;-65
2021/05/05 00:22:46;;;;;;;4.77;2.93;;;;;;;8.74;60.48;98910.44;5101392;28;20471;-66
2021/05/05 00:25:11;;;;;;;7.37;3.07;;;;;;;8.36;60.62;98895.25;5101098;28;20457;-65
2021/05/05 00:27:37;;;;;;;5.50;3.00;;;;;;;8.39;61.59;98896.09;5114090;28;20277;-65
2021/05/05 00:30:05;;;;;;;4.90;3.63;;;;;;;8.86;60.86;98892.97;5120155;28;20207;-66
2021/05/05 00:32:30;;;;;;;4.63;3.30;;;;;;;8.92;59.76;98903.28;5121615;28;20213;-66
2021/05/05 00:34:56;;;;;;;6.27;3.87;;;;;;;8.84;60.97;98907.72;5122117;28;20411;-64
2021/05/05 00:37:21;;;;;;;4.10;3.40;;;;;;;8.45;61.39;98905.56;5121495;28;20172;-65
2021/05/05 00:39:46;;;;;;;7.57;4.10;;;;;;;8.80;61.14;98896.50;5121553;28;20176;-65
2021/05/05 00:42:12;;;;;;;8.50;3.63;;;;;;;8.50;61.71;98897.75;5102035;28;20184;-65
2021/05/05 00:44:37;;;;;;;5.43;3.40;;;;;;;8.29;61.72;98904.00;5101060;28;20176;-65
2021/05/05 00:47:02;;;;;;;7.57;3.90;;;;;;;8.72;61.65;98896.59;5100073;28;20176;-65
2021/05/05 00:49:28;;;;;;;6.83;3.60;;;;;;;8.40;62.36;98891.75;5100903;28;20569;-64
2021/05/05 00:51:53;;;;;;;7.03;3.70;;;;;;;8.15;62.21;98899.81;5100836;28;20204;-64
2021/05/05 00:54:19;;;;;;;4.90;3.37;;;;;;;8.56;61.80;98901.09;5104521;28;20254;-64
2021/05/05 00:56:45;;;;;;;7.83;3.57;;;;;;;8.34;62.10;98902.22;5121684;28;20172;-63
2021/05/05 00:59:11;;;;;;;5.77;3.33;;;;;;;8.25;61.80;98900.56;5120545;28;20171;-64
2021/05/05 01:01:39;;;;;;;4.00;2.77;;;;;;;8.05;61.64;98887.78;5121029;28;20175;-64
2021/05/05 01:04:04;;;;;;;4.00;3.40;;;;;;;8.36;61.39;98910.84;5121475;28;20405;-64
2021/05/05 01:06:29;;;;;;;6.00;3.50;;;;;;;8.27;61.30;98894.47;5121031;28;20424;-65
2021/05/05 01:08:55;;;;;;;4.07;3.53;;;;;;;8.55;61.39;98894.22;5112015;28;20188;-65
2021/05/05 01:11:20;;;;;;;4.13;2.67;;;;;;;8.04;61.33;98897.31;5101905;28;20402;-66
2021/05/05 01:13:45;;;;;;;4.67;3.00;;;;;;;8.20;60.90;98890.25;5100582;28;20198;-65
2021/05/05 01:16:14;;;;;;;5.57;3.03;;;;;;;8.54;60.43;98894.25;5100589;28;20183;-64
2021/05/05 01:18:40;;;;;;;6.50;3.37;;;;;;;8.35;61.25;98897.00;5100987;28;20179;-65
2021/05/05 01:21:06;;;;;;;4.60;3.10;;;;;;;8.22;61.07;98890.22;5100354;28;20468;-65
2021/05/05 01:23:31;;;;;;;5.83;3.10;;;;;;;8.24;60.64;98886.75;5100267;28;20451;-65
2021/05/05 01:25:56;;;;;;;4.03;2.87;;;;;;;8.34;60.69;98900.47;5100699;28;20302;-65
2021/05/05 01:28:22;;;;;;;4.20;3.17;;;;;;;8.70;59.92;98894.88;5100965;28;20172;-65
2021/05/05 01:30:48;;;;;;;4.20;3.10;;;;;;;8.52;60.41;98921.94;5099724;28;20200;-64
2021/05/05 01:33:14;;;;;;;6.30;3.40;;;;;;;8.24;60.38;98896.25;5100539;28;20172;-65
2021/05/05 01:35:40;;;;;;;4.70;2.80;;;;;;;8.23;60.34;98904.94;5100229;28;20449;-65
2021/05/05 01:38:05;;;;;;;3.90;2.70;;;;;;;8.38;60.22;98901.31;5100457;28;20445;-64
2021/05/05 01:40:32;;;;;;;4.73;2.83;;;;;;;8.23;60.71;98891.94;5099943;28;20179;-64
2021/05/05 01:43:00;;;;;;;4.07;2.53;;;;;;;8.49;59.72;98894.28;5099845;28;20168;-64
2021/05/05 01:45:25;;;;;;;4.07;2.70;;;;;;;8.26;60.16;98890.16;5100448;28;20405;-65
2021/05/05 01:47:55;;;;;;;5.33;2.70;;;;;;;8.34;60.28;98895.28;5099868;28;20807;-65
2021/05/05 01:50:21;;;;;;;3.10;2.47;;;;;;;8.27;60.11;98893.63;5099711;28;20581;-65
2021/05/05 01:52:46;;;;;;;6.53;4.37;;;;;;;8.62;59.62;98882.00;5101054;28;20415;-64
2021/05/05 01:55:11;;;;;;;5.63;2.63;;;;;;;8.12;60.50;98891.19;5120205;28;20171;-64
2021/05/05 01:57:43;;;;;;;6.93;3.40;;;;;;;8.33;60.28;98888.34;5120291;28;20542;-65
2021/05/05 02:00:13;;;;;;;6.57;4.20;;;;;;;7.92;61.12;98884.47;5118874;28;20188;-66
2021/05/05 02:02:38;;;;;;;6.83;3.30;;;;;;;8.17;60.96;98872.13;5119917;28;20438;-65
2021/05/05 02:05:05;;;;;;;3.47;2.50;;;;;;;8.11;61.36;98884.28;5120017;28;20846;-66
2021/05/05 02:07:30;;;;;;;5.63;2.87;;;;;;;8.29;60.76;98868.50;5118450;28;20262;-66
2021/05/05 02:09:56;;;;;;;3.77;2.70;;;;;;;8.03;61.28;98885.22;5120011;28;20468;-65
2021/05/05 02:12:21;;;;;;;6.83;3.30;;;;;;;8.10;61.07;98888.59;5119736;28;20533;-65
2021/05/05 02:14:47;;;;;;;5.40;2.90;;;;;;;8.19;61.22;98890.25;5120223;28;20180;-64
2021/05/05 02:17:13;;;;;;;3.40;3.10;;;;;;;8.26;61.46;98887.56;5119761;28;20281;-65
2021/05/05 02:19:39;;;;;;;3.90;2.70;;;;;;;8.00;61.53;98893.03;5119683;28;20167;-65
2021/05/05 02:22:04;;;;;;;6.93;3.20;;;;;;;8.26;61.47;98886.72;5114172;28;20430;-65
2021/05/05 02:24:30;;;;;;;4.20;2.70;;;;;;;8.54;61.27;98881.25;5099081;28;20223;-66
2021/05/05 02:26:55;;;;;;;5.33;2.70;;;;;;;7.93;62.39;98896.56;5099029;28;20302;-66
2021/05/05 02:29:20;;;;;;;5.20;3.50;;;;;;;8.13;62.17;98890.31;5099454;28;20347;-64
2021/05/05 02:31:46;;;;;;;8.47;3.60;;;;;;;7.87;62.64;98888.84;5098962;28;20594;-65
2021/05/05 02:34:12;;;;;;;5.90;3.17;;;;;;;7.97;62.64;98881.81;5099149;28;20186;-64
2021/05/05 02:36:37;;;;;;;2.60;2.40;;;;;;;8.33;61.28;98875.38;5099886;28;21026;-65
2021/05/05 02:39:05;;;;;;;6.07;3.57;;;;;;;8.19;61.65;98869.50;5119461;28;20179;-65
2021/05/05 02:41:31;;;;;;;5.00;3.00;;;;;;;8.07;62.01;98876.53;5119081;28;20486;-65
2021/05/05 02:43:56;;;;;;;5.20;2.73;;;;;;;8.34;61.69;98879.69;5119877;28;20414;-64
2021/05/05 02:46:21;;;;;;;4.97;3.07;;;;;;;7.95;62.22;98855.03;5119351;28;20175;-65
2021/05/05 02:48:47;;;;;;;5.20;2.90;;;;;;;8.11;61.96;98876.50;5119280;28;20175;-65
2021/05/05 02:51:12;;;;;;;4.53;3.07;;;;;;;8.01;61.83;98862.75;5119192;28;20224;-64
2021/05/05 02:53:37;;;;;;;5.43;3.10;;;;;;;8.02;62.20;98873.09;5099646;28;20179;-64
2021/05/05 02:56:03;;;;;;;3.20;2.90;;;;;;;7.98;62.18;98861.03;5098864;28;20546;-65
2021/05/05 02:58:29;;;;;;;5.00;3.23;;;;;;;8.35;61.81;98870.16;5099089;28;20424;-65
2021/05/05 03:00:54;;;;;;;4.77;3.20;;;;;;;8.07;61.80;98863.53;5098532;28;20418;-65
2021/05/05 03:03:19;;;;;;;5.90;2.97;;;;;;;7.98;61.81;98858.44;5098611;28;20229;-65
2021/05/05 03:05:45;;;;;;;5.20;3.07;;;;;;;7.81;62.80;98870.75;5099107;28;20460;-64
2021/05/05 03:08:10;;;;;;;3.70;2.87;;;;;;;7.91;62.58;98872.38;5098672;28;20257;-66
2021/05/05 03:10:35;;;;;;;3.50;3.20;;;;;;;8.05;62.10;98864.44;5097978;28;20455;-65
2021/05/05 03:13:01;;;;;;;5.57;2.80;;;;;;;7.83;62.61;98879.38;5098876;28;20241;-65
2021/05/05 03:15:26;;;;;;;6.07;3.33;;;;;;;7.87;62.71;98865.50;5098441;28;20225;-65
2021/05/05 03:17:51;;;;;;;6.73;3.27;;;;;;;8.02;62.32;98857.53;5098441;28;20168;-65
2021/05/05 03:20:17;;;;;;;4.77;2.90;;;;;;;7.74;63.06;98888.94;5098914;28;20168;-65
2021/05/05 03:22:42;;;;;;;4.97;3.10;;;;;;;7.87;62.76;98894.03;5098371;28;20180;-64
2021/05/05 03:25:08;;;;;;;5.93;3.07;;;;;;;7.83;63.01;98869.00;5098944;28;20298;-65
2021/05/05 03:27:34;;;;;;;5.37;3.07;;;;;;;8.14;61.65;98860.91;5099302;28;20205;-65
2021/05/05 03:29:59;;;;;;;7.70;3.30;;;;;;;7.82;62.90;98859.47;5098354;28;20457;-65
2021/05/05 03:32:25;;;;;;;6.57;3.30;;;;;;;7.83;62.58;98871.59;5098209;28;20172;-65
2021/05/05 03:34:50;;;;;;;4.73;3.10;;;;;;;7.91;62.48;98890.53;5098762;28;20172;-66
2021/05/05 03:37:15;;;;;;;4.23;2.93;;;;;;;8.17;62.05;98864.34;5103568;28;20175;-66
2021/05/05 03:39:41;;;;;;;5.63;3.17;;;;;;;8.30;61.77;98862.44;5118557;28;20197;-66
2021/05/05 03:42:06;;;;;;;8.70;2.93;;;;;;;8.19;62.17;98866.91;5119185;28;20179;-65
2021/05/05 03:44:32;;;;;;;6.23;2.80;;;;;;;7.79;62.37;98856.91;5118477;28;20171;-65
2021/05/05 03:46:57;;;;;;;4.50;3.40;;;;;;;8.06;63.25;98871.34;5118415;28;20598;-66
2021/05/05 03:49:22;;;;;;;4.70;2.77;;;;;;;8.13;62.13;98861.75;5118869;28;20188;-66
2021/05/05 03:51:48;;;;;;;8.13;3.60;;;;;;;7.99;62.52;98864.50;5114944;28;20586;-65
2021/05/05 03:54:13;;;;;;;4.23;3.07;;;;;;;7.39;64.18;98866.75;5098033;28;20165;-66
2021/05/05 03:56:38;;;;;;;4.27;3.07;;;;;;;7.75;63.25;98864.75;5098457;28;20196;-65
2021/05/05 03:59:04;;;;;;;6.70;3.20;;;;;;;8.64;61.35;98853.41;5098043;28;20489;-64
2021/05/05 04:01:29;;;;;;;7.73;3.30;;;;;;;7.93;62.81;98857.66;5097954;28;20423;-65
2021/05/05 04:03:54;;;;;;;5.30;2.97;;;;;;;8.01;62.57;98861.03;5098438;28;20200;-66
2021/05/05 04:06:19;;;;;;;3.30;3.00;;;;;;;7.99;62.66;98859.31;5097714;28;20233;-66
2021/05/05 04:08:45;;;;;;;3.60;3.23;;;;;;;7.81;63.52;98860.38;5098066;28;20196;-66
2021/05/05 04:11:10;;;;;;;7.23;3.20;;;;;;;7.73;64.58;98858.69;5098134;28;20196;-66
2021/05/05 04:13:36;;;;;;;5.17;3.40;;;;;;;7.60;65.64;98870.03;5097815;28;20183;-66
2021/05/05 04:16:01;;;;;;;7.70;3.23;;;;;;;7.65;65.36;98860.50;5097972;28;20173;-66
2021/05/05 04:18:27;;;;;;;6.87;3.30;;;;;;;7.72;64.98;98856.97;5098187;28;20188;-65
2021/05/05 04:20:54;;;;;;;5.97;3.30;;;;;;;7.89;64.54;98856.81;5097727;28;20207;-65
2021/05/05 04:23:19;;;;;;;7.07;3.20;;;;;;;7.54;65.89;98864.94;5099346;28;20176;-66
2021/05/05 04:25:44;;;;;;;4.53;2.90;;;;;;;8.01;64.67;98861.03;5101398;28;20498;-65
2021/05/05 04:28:10;;;;;;;4.63;3.00;;;;;;;7.79;66.22;98862.09;5101398;28;20221;-66
2021/05/05 04:30:35;;;;;;;4.80;3.53;;;;;;;7.92;64.86;98859.38;5101010;28;20204;-65
2021/05/05 04:33:00;;;;;;;6.23;3.57;;;;;;;7.67;65.29;98868.25;5117023;28;20441;-65
2021/05/05 04:35:26;;;;;;;5.07;3.10;;;;;;;7.81;64.86;98855.19;5105308;28;20275;-65
2021/05/05 04:37:51;;;;;;;7.03;3.40;;;;;;;7.68;64.82;98852.69;5101635;28;20164;-65
2021/05/05 04:40:16;;;;;;;6.37;3.00;;;;;;;7.54;65.14;98851.97;5101229;28;20529;-65
2021/05/05 04:42:42;;;;;;;8.53;3.63;;;;;;;7.54;65.58;98859.75;5101113;28;20175;-65
2021/05/05 04:45:08;;;;;;;6.77;3.50;;;;;;;7.52;65.29;98872.72;5101803;28;20180;-65
2021/05/05 04:47:34;;;;;;;6.03;3.50;;;;;;;7.75;65.58;98872.53;5100971;28;20465;-65
2021/05/05 04:50:00;;;;;;;5.63;3.40;;;;;;;7.44;66.60;98891.78;5099888;28;20501;-65
2021/05/05 04:52:25;;;;;;;9.93;3.47;;;;;;;7.36;66.70;98868.50;5104482;27;20445;-66
2021/05/05 04:54:50;;;;;;;8.50;3.40;;;;;;;7.28;66.59;98868.59;5132707;27;20221;-66
2021/05/05 04:57:16;;;;;;;4.30;3.30;;;;;;;7.57;66.55;98859.72;5103567;28;20659;-65
2021/05/05 04:59:41;;;;;;;4.30;3.43;;;;;;;7.57;66.37;98864.91;5101546;28;20175;-66
2021/05/05 05:02:08;;;;;;;6.20;3.70;;;;;;;7.82;65.44;98862.06;5100237;28;20180;-66
2021/05/05 05:04:35;;;;;;;7.30;3.63;;;;;;;7.86;65.13;98871.53;5104227;28;20548;-65
2021/05/05 05:07:01;;;;;;;4.87;3.20;;;;;;;7.54;65.26;98859.75;5103822;28;20445;-65
2021/05/05 05:09:26;;;;;;;7.93;3.87;;;;;;;7.30;65.63;98874.59;5100191;28;20720;-64
2021/05/05 05:11:51;;;;;;;4.50;3.23;;;;;;;7.29;65.49;98872.88;5100757;28;20440;-64
2021/05/05 05:14:16;;;;;;;8.07;3.60;;;;;;;7.84;63.63;98870.72;5101364;28;20169;-64
2021/05/05 05:16:42;;;;;;;5.87;2.70;;;;;;;7.64;63.82;98881.25;5101043;28;20215;-65
2021/05/05 05:19:07;;;;;;;4.87;3.40;;;;;;;7.73;62.86;98876.00;5100748;28;20277;-65
2021/05/05 05:21:32;;;;;;;4.50;2.73;;;;;;;7.60;63.07;98870.03;5101204;28;20164;-65
2021/05/05 05:23:57;;;;;;;5.30;3.27;;;;;;;7.76;63.19;98876.81;5101502;28;20199;-63
2021/05/05 05:26:23;;;;;;;5.67;3.13;;;;;;;8.26;61.37;98871.13;5099519;28;20620;-64
2021/05/05 05:28:48;;;;;;;5.20;3.67;;;;;;;7.96;62.54;98873.19;5109549;28;20176;-65
2021/05/05 05:31:13;;;;;;;5.43;3.23;;;;;;;7.73;62.28;98876.84;5100274;28;20220;-65
2021/05/05 05:33:39;;;;;;;4.77;3.47;;;;;;;8.21;61.23;98868.63;5107234;27;20191;-64
2021/05/05 05:36:04;;;;;;;4.53;3.10;;;;;;;7.95;61.34;98887.03;5123163;27;20262;-65
2021/05/05 05:38:29;;;;;;;6.23;3.40;;;;;;;7.80;61.92;98867.28;5141052;27;20588;-65
2021/05/05 05:40:55;;;;;;;8.13;5.50;;;;;;;7.99;61.94;98888.72;5121059;27;20175;-65
2021/05/05 05:43:20;;;;;;;4.90;3.40;;;;;;;8.09;61.74;98889.47;5134329;27;20171;-65
2021/05/05 05:45:45;;;;;;;5.80;3.90;;;;;;;8.17;62.66;98898.06;5115899;27;20176;-66
2021/05/05 05:48:11;;;;;;;6.80;3.83;;;;;;;8.09;62.77;98903.34;5108511;27;20535;-65
2021/05/05 05:50:37;;;;;;;8.33;3.90;;;;;;;7.95;63.03;98884.44;5100032;28;20523;-65
2021/05/05 05:53:02;;;;;;;5.90;4.37;;;;;;;7.91;63.31;98896.59;5115352;28;20198;-65
2021/05/05 05:55:29;;;;;;;6.97;3.70;;;;;;;8.14;62.49;98887.69;5120171;28;20195;-65
2021/05/05 05:57:57;;;;;;;6.10;4.33;;;;;;;8.46;62.10;98880.47;5101947;28;20176;-65
2021/05/05 06:00:22;;;;;;;4.77;3.57;;;;;;;8.32;62.34;98881.47;5139905;27;20416;-65
2021/05/05 06:02:47;;;;;;;8.67;4.23;;;;;;;8.29;62.21;98899.66;5140884;27;20412;-65
2021/05/05 06:05:13;;;;;;;6.77;3.63;;;;;;;8.39;62.11;98885.72;5140763;27;20543;-66
2021/05/05 06:07:39;;;;;;;6.67;3.73;;;;;;;8.38;62.23;98890.91;5135868;27;20178;-66
2021/05/05 06:10:05;;;;;;;5.03;3.80;;;;;;;8.76;61.51;98887.03;5119642;28;20571;-66
2021/05/05 06:12:31;;;;;;;3.70;3.40;;;;;;;7.95;62.88;98876.66;5119500;28;20258;-66
2021/05/05 06:14:57;;;;;;;6.50;3.70;;;;;;;7.78;63.56;98883.72;5119700;28;20456;-65
2021/05/05 06:17:23;;;;;;;5.03;3.50;;;;;;;7.53;63.09;98900.34;5112985;28;20183;-65
2021/05/05 06:19:48;;;;;;;5.20;3.60;;;;;;;8.02;62.59;98886.09;5111235;28;20417;-65
2021/05/05 06:22:13;;;;;;;5.70;3.60;;;;;;;8.54;60.95;98897.69;5117722;28;20175;-66
2021/05/05 06:24:38;;;;;;;4.83;3.60;;;;;;;8.05;62.34;98901.66;5135974;27;20223;-64
2021/05/05 06:27:06;;;;;;;5.43;3.43;;;;;;;8.23;62.76;98913.56;5134238;27;20233;-65
2021/05/05 06:29:32;;;;;;;7.17;4.00;;;;;;;8.15;64.33;98911.94;5102547;28;20222;-66
2021/05/05 06:31:57;;;;;;;5.30;3.37;;;;;;;8.22;62.88;98906.66;5111309;27;20456;-65
2021/05/05 06:34:23;;;;;;;6.77;3.60;;;;;;;8.32;62.87;98907.44;5109215;27;20176;-65
2021/05/05 06:36:48;;;;;;;6.13;3.73;;;;;;;8.44;63.04;98906.41;5120120;27;20463;-66
2021/05/05 06:39:13;;;;;;;4.40;3.13;;;;;;;7.73;64.40;98915.75;5105901;27;20208;-65
2021/05/05 06:41:39;;;;;;;6.63;3.40;;;;;;;8.00;63.97;98925.94;5102049;28;20179;-66
2021/05/05 06:44:06;;;;;;;6.57;3.50;;;;;;;7.73;65.20;98923.53;5098675;28;20204;-67
2021/05/05 06:46:32;;;;;;;3.97;3.10;;;;;;;7.73;65.21;98931.31;5106889;28;20176;-66
2021/05/05 06:48:57;;;;;;;4.87;3.50;;;;;;;8.17;64.82;98923.16;5121333;27;20754;-65
2021/05/05 06:51:23;;;;;;;4.40;3.53;;;;;;;7.95;65.11;98932.88;5118083;28;20496;-66
2021/05/05 06:53:48;;;;;;;8.93;3.77;;;;;;;7.98;65.55;98931.09;5103217;28;20179;-65
2021/05/05 06:56:13;;;;;;;6.40;3.40;;;;;;;7.71;66.00;98933.09;5108374;28;20480;-65
2021/05/05 06:58:39;;;;;;;4.00;3.43;;;;;;;7.99;65.77;98937.16;5118579;28;20272;-65
2021/05/05 07:01:04;;;;;;;8.40;3.83;;;;;;;7.96;66.11;98955.38;5118207;28;20436;-65
2021/05/05 07:03:30;;;;;;;5.93;3.50;;;;;;;7.70;67.83;98949.50;5115551;28;20305;-63
2021/05/05 07:05:55;;;;;;;4.70;3.33;;;;;;;7.61;66.97;98946.97;5113432;27;20203;-65
2021/05/05 07:08:20;;;;;;;5.60;2.90;;;;;;;7.67;67.67;98939.16;5100173;28;20541;-64
2021/05/05 07:10:45;;;;;;;4.63;3.43;;;;;;;7.35;68.53;98960.97;5099135;28;20211;-63
2021/05/05 07:13:11;;;;;;;4.17;3.40;;;;;;;7.59;68.48;98959.13;5107401;28;20229;-64
2021/05/05 07:15:36;;;;;;;7.93;3.60;;;;;;;7.74;69.11;98959.00;5118314;28;20193;-64
2021/05/05 07:18:01;;;;;;;6.73;3.60;;;;;;;7.37;69.27;98969.63;5111145;28;20203;-64
2021/05/05 07:20:27;;;;;;;5.60;3.60;;;;;;;7.52;69.07;98973.84;5118075;28;20175;-65
2021/05/05 07:22:52;;;;;;;6.90;3.67;;;;;;;7.42;69.19;98965.25;5108097;28;20460;-65
2021/05/05 07:25:17;;;;;;;6.30;3.60;;;;;;;7.47;69.62;98969.53;5097916;28;20230;-65
2021/05/05 07:27:43;;;;;;;3.40;3.10;;;;;;;7.63;68.77;98971.19;5100340;28;20209;-64
2021/05/05 07:30:08;;;;;;;6.13;3.60;;;;;;;7.87;68.64;98979.63;5104129;28;20200;-64
2021/05/05 07:32:34;;;;;;;5.27;3.43;;;;;;;7.41;69.34;98993.78;5108722;28;20232;-66
2021/05/05 07:35:02;;;;;;;4.50;3.40;;;;;;;7.28;68.51;98990.41;5111124;28;20480;-65
2021/05/05 07:38:04;;;;;;;7.30;3.50;;;;;;;7.29;69.71;98989.50;5134567;28;20194;-66
2021/05/05 07:48:23;;;;;;;4.97;3.40;;;;;;;7.06;69.93;99003.47;5099987;28;20446;-65
2021/05/05 07:50:49;;;;;;;4.70;3.10;;;;;;;7.32;69.62;98984.34;5104959;28;20632;-66
2021/05/05 07:53:14;;;;;;;3.83;3.00;;;;;;;6.97;70.30;99000.91;5110900;28;20517;-66
2021/05/05 07:55:40;;;;;;;7.03;3.60;;;;;;;7.55;68.52;99002.34;5118210;28;20175;-66
2021/05/05 07:58:06;;;;;;;6.33;3.87;;;;;;;7.42;69.56;98998.94;5117328;28;20458;-66
2021/05/05 08:00:32;;;;;;;6.00;3.80;;;;;;;7.52;68.71;98997.19;5114121;28;20188;-67
2021/05/05 08:02:58;;;;;;;7.70;4.03;;;;;;;7.60;68.50;98994.53;5112431;28;20515;-67
2021/05/05 08:05:23;;;;;;;5.33;3.47;;;;;;;7.41;69.90;99012.81;5113848;28;20458;-65
2021/05/05 08:07:53;;;;;;;8.90;3.67;;;;;;;7.61;69.10;99003.19;5101360;28;20440;-67
2021/05/05 08:10:18;;;;;;;3.50;3.07;;;;;;;7.87;68.05;99000.41;5113034;28;20237;-67
2021/05/05 08:12:43;;;;;;;5.43;3.67;;;;;;;7.66;69.03;99015.25;5116416;28;20421;-66
2021/05/05 08:15:09;;;;;;;6.53;3.70;;;;;;;7.94;68.08;99017.63;5115334;27;20188;-67
2021/05/05 08:17:35;;;;;;;6.57;4.00;;;;;;;8.10;67.91;99033.94;5118802;27;20636;-66
2021/05/05 08:20:00;;;;;;;7.97;4.10;;;;;;;8.21;67.25;99015.69;5111907;28;20430;-67
2021/05/05 08:22:26;;;;;;;6.40;4.37;;;;;;;8.22;67.08;99009.63;5120477;28;20172;-67
2021/05/05 08:24:51;;;;;;;6.53;3.90;;;;;;;7.67;68.50;99016.97;5109782;28;20496;-68
2021/05/05 08:27:16;;;;;;;7.80;4.00;;;;;;;7.68;68.91;99008.28;5100911;28;20234;-67
2021/05/05 08:29:42;;;;;;;5.37;3.77;;;;;;;7.85;67.64;99015.97;5109759;27;20591;-67
2021/05/05 08:32:08;;;;;;;5.13;4.10;;;;;;;8.35;66.70;99028.53;5113200;27;20552;-67
2021/05/05 08:34:33;;;;;;;9.50;4.30;;;;;;;8.15;66.25;99023.56;5106004;27;20184;-67
2021/05/05 08:36:59;;;;;;;7.57;4.10;;;;;;;7.96;67.24;99039.25;5107083;28;20171;-66
2021/05/05 08:39:25;;;;;;;6.90;3.80;;;;;;;7.63;67.74;99032.53;5118973;27;20576;-67
2021/05/05 08:41:50;;;;;;;6.47;3.90;;;;;;;7.67;68.68;99034.25;5120497;28;20429;-68
2021/05/05 08:44:16;;;;;;;7.47;4.53;;;;;;;8.00;67.95;99015.00;5110214;28;20443;-66
2021/05/05 08:46:43;;;;;;;8.93;3.97;;;;;;;8.13;68.13;99031.31;5119932;28;20199;-68
2021/05/05 08:49:10;;;;;;;8.00;3.80;;;;;;;7.58;68.09;99037.78;5115027;28;20185;-67
2021/05/05 08:51:37;;;;;;;8.10;3.90;;;;;;;7.69;67.72;99041.16;5102212;28;20422;-66
2021/05/05 08:54:05;;;;;;;11.50;4.53;;;;;;;7.69;68.38;99035.97;5100328;28;20475;-68
2021/05/05 08:56:35;;;;;;;20.93;5.50;;;;;;;7.72;68.18;99035.09;5115374;28;20438;-68
2021/05/05 08:59:05;;;;;;;10.90;4.97;;;;;;;7.99;67.92;99043.56;5105923;28;20445;-67
2021/05/05 09:01:31;;;;;;;9.60;4.00;;;;;;;7.86;67.85;99033.28;5102387;28;20425;-65
2021/05/05 09:03:57;;;;;;;5.10;3.83;;;;;;;7.90;67.75;99045.34;5101437;28;20487;-65
2021/05/05 09:06:52;;;;;;;8.00;4.57;;;;;;;8.12;67.22;99057.28;5104024;28;20864;-65
2021/05/05 09:09:41;;;;;;;6.30;3.73;;;;;;;7.88;68.26;99067.00;5103181;28;20723;-67
2021/05/05 09:12:24;;;;;;;11.30;4.30;;;;;;;7.80;68.34;99061.00;5099874;28;20528;-66
2021/05/05 09:15:07;;;;;;;7.30;3.70;;;;;;;7.86;68.21;99072.19;5101896;28;20438;-65
2021/05/05 09:17:41;;;;;;;7.03;3.97;;;;;;;8.13;67.10;99077.19;5116147;27;20444;-66
2021/05/05 09:20:06;;;;;;;8.60;3.80;;;;;;;7.92;68.15;99056.56;5137212;27;20416;-66
2021/05/05 09:22:48;;;;;;;6.17;3.50;;;;;;;8.22;67.08;99064.16;5106394;28;20426;-66
2021/05/05 09:25:30;;;;;;;8.30;3.60;;;;;;;8.13;67.27;99070.25;5099660;28;20548;-66
2021/05/05 09:28:18;;;;;;;6.40;3.63;;;;;;;8.31;66.46;99073.59;5099871;28;20438;-66
2021/05/05 09:30:51;;;;;;;6.70;3.83;;;;;;;8.21;66.54;99055.50;5100923;28;20444;-65
2021/05/05 09:33:39;;;;;;;7.00;3.57;;;;;;;8.16;67.26;99079.75;5099813;28;20433;-66
2021/05/05 09:36:06;;;;;;;4.93;3.83;;;;;;;8.61;65.62;99069.91;5099684;28;20842;-66
2021/05/05 09:38:49;;;;;;;8.77;3.70;;;;;;;7.90;67.69;99096.38;5099431;28;20792;-67
2021/05/05 09:41:21;;;;;;;6.17;3.80;;;;;;;8.20;67.23;99090.13;5140584;27;20412;-66
2021/05/05 09:43:48;;;;;;;7.30;3.60;;;;;;;8.39;66.61;99090.00;5106232;27;20462;-66
2021/05/05 09:46:46;;;;;;;7.10;3.50;;;;;;;8.04;66.83;99094.56;5109946;28;20432;-66
2021/05/05 09:49:34;;;;;;;5.37;3.43;;;;;;;8.09;66.69;99081.53;5117510;28;20680;-64
2021/05/05 09:52:01;;;;;;;4.90;3.60;;;;;;;8.18;66.59;99086.66;5100528;28;20453;-67
2021/05/05 09:54:31;;;;;;;5.77;3.13;;;;;;;8.64;65.99;99089.81;5099890;28;20410;-68
2021/05/05 09:57:18;;;;;;;4.47;4.00;;;;;;;8.62;65.63;99076.84;5103582;28;20429;-67
2021/05/05 10:00:07;;;;;;;4.90;3.30;;;;;;;9.06;64.39;99090.25;5120089;28;20412;-66
2021/05/05 10:02:46;;;;;;;6.17;3.73;;;;;;;8.46;65.62;99090.81;5114537;28;20909;-67
2021/05/05 10:05:20;;;;;;;6.90;4.43;;;;;;;8.84;64.34;99093.06;5119350;28;20425;-66
2021/05/05 10:07:57;;;;;;;5.90;3.77;;;;;;;8.47;65.32;99080.44;5102497;28;20448;-66
2021/05/05 10:10:25;;;;;;;5.53;3.70;;;;;;;8.57;63.99;99099.38;5099559;28;20788;-66
2021/05/05 10:12:51;;;;;;;7.00;4.77;;;;;;;8.63;65.55;99094.13;5100068;28;20399;-67
2021/05/05 10:15:17;;;;;;;5.63;3.67;;;;;;;8.47;64.42;99115.91;5099801;28;20411;-66
2021/05/05 10:17:49;;;;;;;5.83;3.77;;;;;;;8.87;63.79;99089.56;5100981;28;20475;-67
2021/05/05 10:20:19;;;;;;;7.83;4.27;;;;;;;8.83;63.93;99108.69;5107282;28;20426;-66
2021/05/05 10:22:45;;;;;;;7.53;3.70;;;;;;;9.13;63.17;99109.25;5099510;28;20426;-63
2021/05/05 10:25:15;;;;;;;7.73;3.90;;;;;;;9.66;61.63;99089.53;5102064;28;20472;-65
2021/05/05 10:27:41;;;;;;;5.63;3.40;;;;;;;10.26;59.22;99108.63;5108426;28;20545;-66
2021/05/05 10:30:08;;;;;;;8.47;4.10;;;;;;;9.34;60.99;99126.34;5096316;28;20459;-65
2021/05/05 10:32:34;;;;;;;5.83;3.50;;;;;;;9.16;62.70;99104.00;5097038;28;20411;-65
2021/05/05 10:34:59;;;;;;;4.30;3.17;;;;;;;9.05;61.85;99107.59;5097824;28;20441;-65
2021/05/05 10:37:45;;;;;;;9.30;3.87;;;;;;;9.04;61.52;99113.66;5098673;28;20430;-64
2021/05/05 10:40:19;;;;;;;13.77;8.43;;;;;;;9.79;61.05;99126.66;5103318;28;20532;-67
2021/05/05 10:42:49;;;;;;;3.43;3.10;;;;;;;9.75;60.21;99124.97;5100351;28;20465;-67
2021/05/05 10:45:36;;;;;;;4.77;3.70;;;;;;;9.66;60.56;99118.16;5098724;28;20434;-64
2021/05/05 10:48:13;;;;;;;3.50;2.80;;;;;;;9.54;60.37;99133.91;5098162;28;20438;-68
2021/05/05 10:50:47;;;;;;;6.17;3.37;;;;;;;10.11;58.29;99118.38;5099289;28;20484;-69
2021/05/05 10:53:13;;;;;;;6.20;3.67;;;;;;;10.20;58.42;99126.94;5098643;28;20436;-67
2021/05/05 10:55:41;;;;;;;6.77;3.63;;;;;;;10.65;58.02;99115.84;5098797;28;20422;-68
2021/05/05 10:58:29;;;;;;;5.13;3.37;;;;;;;10.38;58.23;99123.25;5098780;28;20164;-66
2021/05/05 11:01:05;;;;;;;5.40;3.40;;;;;;;10.11;59.12;99121.00;5112950;28;20411;-68
2021/05/05 11:03:57;;;;;;;6.30;3.53;;;;;;;10.08;60.10;99125.38;5103659;28;20854;-68
2021/05/05 11:06:35;;;;;;;8.70;3.50;;;;;;;9.67;61.19;99126.81;5114684;28;20444;-67
2021/05/05 11:09:09;;;;;;;4.53;3.40;;;;;;;9.69;62.59;99145.88;5118161;28;20412;-67
2021/05/05 11:11:39;;;;;;;7.40;3.60;;;;;;;9.18;63.93;99141.25;5109485;28;20556;-67
2021/05/05 11:14:04;;;;;;;7.33;3.50;;;;;;;8.72;64.13;99132.16;5110016;28;20448;-67
2021/05/05 11:16:51;;;;;;;4.93;3.43;;;;;;;9.74;63.00;99157.06;5103403;28;20422;-66
2021/05/05 11:19:35;;;;;;;3.97;3.00;;;;;;;9.17;65.02;99158.56;5098959;28;20172;-67
2021/05/05 11:22:23;;;;;;;3.53;3.23;;;;;;;9.13;65.26;99171.63;5101301;28;20441;-66
2021/05/05 11:24:51;;;;;;;3.40;3.10;;;;;;;9.45;64.86;99173.91;5118453;28;20887;-67
2021/05/05 11:27:18;;;;;;;3.80;2.80;;;;;;;9.07;66.64;99168.22;5112254;28;20438;-66
2021/05/05 11:29:51;;;;;;;2.67;2.47;;;;;;;8.43;68.56;99174.78;5099090;28;20465;-67
2021/05/05 11:32:22;;;;;;;3.13;2.83;;;;;;;9.13;68.08;99185.47;5108630;28;20830;-66
2021/05/05 11:34:48;;;;;;;4.10;3.03;;;;;;;8.70;69.34;99185.84;5123379;27;20854;-64
2021/05/05 11:37:27;;;;;;;5.40;3.37;;;;;;;8.62;69.42;99196.31;5123077;27;20425;-65
2021/05/05 11:39:57;;;;;;;3.40;3.10;;;;;;;9.00;69.45;99182.16;5110068;27;20457;-66
2021/05/05 11:42:23;;;;;;;3.97;2.93;;;;;;;8.64;67.89;99186.78;5103749;28;20495;-65
2021/05/05 11:44:51;;;;;;;4.33;2.90;;;;;;;8.77;68.62;99171.97;5104678;28;20398;-65
2021/05/05 11:47:18;;;;;;;4.40;2.60;;;;;;;8.73;67.08;99178.91;5104287;28;20406;-65
2021/05/05 11:49:45;;;;;;;3.20;2.47;;;;;;;9.11;67.09;99171.66;5106176;28;20461;-66
2021/05/05 11:52:20;;;;;;;4.70;2.90;;;;;;;8.84;65.79;99170.19;5103721;28;20760;-66